createdAt,value
2023-02-11T00:00:16.514Z,12.98
2023-02-11T00:02:46.783Z,15.55
2023-02-11T00:05:15.140Z,20.92
2023-02-11T00:07:42.500Z,15.27
2023-02-11T00:10:12.413Z,17.05
2023-02-11T00:12:39.587Z,14.90
2023-02-11T00:15:07.145Z,20.20
2023-02-11T00:17:34.603Z,17.60
2023-02-11T00:20:01.764Z,16.60
2023-02-11T00:22:28.914Z,17.98
2023-02-11T00:24:57.099Z,21.00
2023-02-11T00:27:24.228Z,16.65
2023-02-11T00:29:51.609Z,24.60
2023-02-11T00:32:18.738Z,22.10
2023-02-11T00:34:45.864Z,21.00
2023-02-11T00:37:13.632Z,19.83
2023-02-11T00:39:40.792Z,14.50
2023-02-11T00:42:08.032Z,15.60
2023-02-11T00:44:35.208Z,20.35
2023-02-11T00:47:02.377Z,15.82
2023-02-11T00:49:29.560Z,17.95
2023-02-11T00:51:56.721Z,17.13
2023-02-11T00:54:23.963Z,13.80
2023-02-11T00:56:51.067Z,16.67
2023-02-11T00:59:18.153Z,19.08
2023-02-11T01:01:45.350Z,15.90
2023-02-11T01:04:12.572Z,15.15
2023-02-11T01:06:39.790Z,18.95
2023-02-11T01:09:06.861Z,16.05
2023-02-11T01:11:34.064Z,17.33
2023-02-11T01:14:01.202Z,16.35
2023-02-11T01:16:28.324Z,15.98
2023-02-11T01:18:55.577Z,12.98
2023-02-11T01:21:22.732Z,18.10
2023-02-11T01:23:49.884Z,17.65
2023-02-11T01:26:17.093Z,15.02
2023-02-11T01:28:44.246Z,20.00
2023-02-11T01:31:11.817Z,16.25
2023-02-11T01:33:39.066Z,15.45
2023-02-11T01:36:06.582Z,17.58
2023-02-11T01:38:33.773Z,14.15
2023-02-11T01:41:02.451Z,17.40
2023-02-11T01:43:32.076Z,18.27
2023-02-11T01:46:37.130Z,18.20
2023-02-11T01:49:04.457Z,19.33
2023-02-11T01:51:34.825Z,17.40
2023-02-11T01:54:21.789Z,20.33
2023-02-11T01:57:09.601Z,13.32
2023-02-11T01:59:49.245Z,19.05
2023-02-11T02:02:18.790Z,19.67
2023-02-11T02:04:58.274Z,13.73
2023-02-11T02:07:37.781Z,17.77
2023-02-11T02:10:08.414Z,20.98
2023-02-11T02:12:35.575Z,18.15
2023-02-11T02:15:21.690Z,14.00
2023-02-11T02:17:56.831Z,17.10
2023-02-11T02:20:59.500Z,19.58
2023-02-11T02:23:31.354Z,20.67
2023-02-11T02:26:01.609Z,14.45
2023-02-11T02:28:35.058Z,21.50
2023-02-11T02:31:11.567Z,24.05
2023-02-11T02:33:48.030Z,24.02
2023-02-11T02:36:17.957Z,15.25
2023-02-11T02:38:51.753Z,18.75
2023-02-11T02:41:20.820Z,16.88
2023-02-11T02:46:19.723Z,19.90
2023-02-11T02:48:49.455Z,17.40
2023-02-11T02:51:16.614Z,23.35
2023-02-11T02:54:06.837Z,14.32
2023-02-11T02:56:52.719Z,17.30
2023-02-11T02:59:49.227Z,19.23
2023-02-11T03:02:23.525Z,21.13
2023-02-11T03:05:09.554Z,19.92
2023-02-11T03:07:45.847Z,21.02
2023-02-11T03:10:15.816Z,22.70
2023-02-11T03:12:44.742Z,20.83
2023-02-11T03:15:13.049Z,20.77
2023-02-11T03:17:41.861Z,18.48
2023-02-11T03:20:11.419Z,19.70
2023-02-11T03:22:42.202Z,26.95
2023-02-11T03:25:10.386Z,21.48
2023-02-11T03:27:44.009Z,20.98
2023-02-11T03:30:19.570Z,29.83
2023-02-11T03:32:50.647Z,19.25
2023-02-11T03:35:29.770Z,21.27
2023-02-11T03:38:00.497Z,18.48
2023-02-11T03:40:33.133Z,28.25
2023-02-11T03:43:01.602Z,20.95
2023-02-11T03:45:29.194Z,21.60
2023-02-11T03:48:01.449Z,27.13
2023-02-11T03:50:30.855Z,22.45
2023-02-11T03:52:58.994Z,20.88
2023-02-11T03:55:26.641Z,21.45
2023-02-11T03:57:53.935Z,23.83
2023-02-11T04:00:21.129Z,26.30
2023-02-11T04:02:48.335Z,22.42
2023-02-11T04:05:16.726Z,22.80
2023-02-11T04:07:44.286Z,23.17
2023-02-11T04:10:12.888Z,21.13
2023-02-11T04:12:40.159Z,22.17
2023-02-11T04:15:07.549Z,18.33
2023-02-11T04:17:34.661Z,23.67
2023-02-11T04:20:02.166Z,21.73
2023-02-11T04:22:29.311Z,21.75
2023-02-11T04:24:56.487Z,26.15
2023-02-11T04:27:24.140Z,21.35
2023-02-11T04:29:51.219Z,24.80
2023-02-11T04:32:18.611Z,22.23
2023-02-11T04:34:45.920Z,23.55
2023-02-11T04:37:13.237Z,21.38
2023-02-11T04:39:40.380Z,24.83
2023-02-11T04:42:07.657Z,28.27
2023-02-11T04:44:34.969Z,25.90
2023-02-11T04:47:02.093Z,26.52
2023-02-11T04:49:29.469Z,29.33
2023-02-11T04:51:56.606Z,24.02
2023-02-11T04:54:23.752Z,24.95
2023-02-11T04:56:51.250Z,24.85
2023-02-11T04:59:18.374Z,24.48
2023-02-11T05:01:46.145Z,28.10
2023-02-11T05:04:13.343Z,23.02
2023-02-11T05:06:40.659Z,23.85
2023-02-11T05:09:08.274Z,24.23
2023-02-11T05:11:36.679Z,24.65
2023-02-11T05:14:03.822Z,28.70
2023-02-11T05:16:32.869Z,30.77
2023-02-11T05:21:27.231Z,24.63
2023-02-11T05:23:54.335Z,23.45
2023-02-11T05:26:21.487Z,26.55
2023-02-11T05:28:48.747Z,32.15
2023-02-11T05:31:16.909Z,24.20
2023-02-11T05:33:44.318Z,24.92
2023-02-11T05:36:13.258Z,35.72
2023-02-11T05:38:40.700Z,29.83
2023-02-11T05:41:08.091Z,28.40
2023-02-11T05:43:35.606Z,28.58
2023-02-11T05:46:03.420Z,29.02
2023-02-11T05:48:30.685Z,26.95
2023-02-11T05:50:57.905Z,24.67
2023-02-11T05:53:25.073Z,28.10
2023-02-11T05:55:52.675Z,33.03
2023-02-11T05:58:20.240Z,29.63
2023-02-11T06:00:47.372Z,31.75
2023-02-11T06:03:14.735Z,29.02
2023-02-11T06:05:43.530Z,28.35
2023-02-11T06:08:10.639Z,27.08
2023-02-11T06:10:37.872Z,24.83
2023-02-11T06:13:05.279Z,30.65
2023-02-11T06:15:32.602Z,30.90
2023-02-11T06:17:59.716Z,37.25
2023-02-11T06:20:26.850Z,28.52
2023-02-11T06:22:54.146Z,29.45
2023-02-11T06:25:22.554Z,36.15
2023-02-11T06:27:49.764Z,33.40
2023-02-11T06:30:16.963Z,31.40
2023-02-11T06:32:45.681Z,29.05
2023-02-11T06:37:45.287Z,28.73
2023-02-11T06:40:12.674Z,36.20
2023-02-11T06:42:40.089Z,29.33
2023-02-11T06:45:09.426Z,29.88
2023-02-11T06:47:36.589Z,34.05
2023-02-11T06:50:03.909Z,34.15
2023-02-11T06:52:31.062Z,29.55
2023-02-11T06:54:58.634Z,39.30
2023-02-11T06:57:25.778Z,32.80
2023-02-11T06:59:54.055Z,35.05
2023-02-11T07:03:03.303Z,35.42
2023-02-11T07:05:30.537Z,36.05
2023-02-11T07:07:57.793Z,30.15
2023-02-11T07:10:24.969Z,30.45
2023-02-11T07:12:52.371Z,33.55
2023-02-11T07:15:19.542Z,34.33
2023-02-11T07:17:47.452Z,38.30
2023-02-11T07:20:15.004Z,33.53
2023-02-11T07:22:42.161Z,30.80
2023-02-11T07:25:09.344Z,39.45
2023-02-11T07:27:36.480Z,26.00
2023-02-11T07:30:06.880Z,31.42
2023-02-11T07:32:34.385Z,38.75
2023-02-11T07:35:01.571Z,36.85
2023-02-11T07:37:28.841Z,32.83
2023-02-11T07:39:55.956Z,33.28
2023-02-11T07:42:23.307Z,36.55
2023-02-11T07:44:50.688Z,41.50
2023-02-11T07:47:18.182Z,30.92
2023-02-11T07:49:46.566Z,39.33
2023-02-11T07:52:13.739Z,37.22
2023-02-11T07:54:42.110Z,37.60
2023-02-11T07:57:09.296Z,33.00
2023-02-11T07:59:36.732Z,42.10
2023-02-11T08:02:04.042Z,31.75
2023-02-11T08:04:31.285Z,32.30
2023-02-11T08:06:59.310Z,34.40
2023-02-11T08:09:26.605Z,33.90
2023-02-11T08:11:53.872Z,35.22
2023-02-11T08:14:21.216Z,33.50
2023-02-11T08:16:48.371Z,39.03
2023-02-11T08:19:16.211Z,32.95
2023-02-11T08:21:43.541Z,28.95
2023-02-11T08:24:10.913Z,38.72
2023-02-11T08:26:38.594Z,31.55
2023-02-11T08:29:13.133Z,38.63
2023-02-11T08:31:42.123Z,35.00
2023-02-11T08:34:11.461Z,36.50
2023-02-11T08:36:39.364Z,34.90
2023-02-11T08:39:18.700Z,36.92
2023-02-11T08:41:48.927Z,33.92
2023-02-11T08:44:16.349Z,35.10
2023-02-11T08:47:04.599Z,33.08
2023-02-11T08:50:09.306Z,36.45
2023-02-11T08:52:38.877Z,32.53
2023-02-11T08:55:06.309Z,34.65
2023-02-11T08:57:33.486Z,34.33
2023-02-11T09:00:00.596Z,32.80
2023-02-11T09:02:27.748Z,34.35
2023-02-11T09:04:55.124Z,35.67
2023-02-11T09:07:22.300Z,38.83
2023-02-11T09:09:49.469Z,41.53
2023-02-11T09:12:16.694Z,38.80
2023-02-11T09:14:43.805Z,34.30
2023-02-11T09:17:11.191Z,33.05
2023-02-11T09:19:38.607Z,38.08
2023-02-11T09:22:05.838Z,35.80
2023-02-11T09:24:33.039Z,31.70
2023-02-11T09:27:00.184Z,38.75
2023-02-11T09:29:27.455Z,30.92
2023-02-11T09:31:54.812Z,32.28
2023-02-11T09:34:22.089Z,34.53
2023-02-11T09:36:49.307Z,30.95
2023-02-11T09:39:18.284Z,31.75
2023-02-11T09:44:20.943Z,31.35
2023-02-11T09:46:50.855Z,35.50
2023-02-11T09:49:20.231Z,34.50
2023-02-11T09:51:49.360Z,37.45
2023-02-11T09:54:37.266Z,34.80
2023-02-11T09:57:06.191Z,31.80
2023-02-11T10:02:05.340Z,33.10
2023-02-11T10:04:51.417Z,32.22
2023-02-11T10:07:37.629Z,33.75
2023-02-11T10:10:19.814Z,33.33
2023-02-11T10:13:01.742Z,34.85
2023-02-11T10:15:43.610Z,33.03
2023-02-11T10:18:13.776Z,29.45
2023-02-11T10:21:00.380Z,33.33
2023-02-11T10:23:30.192Z,32.58
2023-02-11T10:25:58.970Z,34.72
2023-02-11T10:28:34.346Z,30.10
2023-02-11T10:31:03.724Z,37.70
2023-02-11T10:33:32.808Z,31.10
2023-02-11T10:36:00.133Z,28.73
2023-02-11T10:38:28.066Z,34.45
2023-02-11T10:40:55.212Z,28.77
2023-02-11T10:43:24.941Z,28.58
2023-02-11T10:45:53.330Z,29.45
2023-02-11T10:48:40.749Z,29.42
2023-02-11T10:51:14.681Z,29.45
2023-02-11T10:53:42.132Z,25.80
2023-02-11T10:56:11.793Z,29.10
2023-02-11T10:58:46.422Z,28.27
2023-02-11T11:01:24.477Z,30.05
2023-02-11T11:03:52.820Z,29.52
2023-02-11T11:06:30.128Z,26.58
2023-02-11T11:08:57.468Z,27.92
2023-02-11T11:11:25.764Z,28.70
2023-02-11T11:13:52.868Z,29.77
2023-02-11T11:16:20.068Z,25.00
2023-02-11T11:18:48.764Z,24.95
2023-02-11T11:21:21.271Z,25.75
2023-02-11T11:23:50.338Z,30.60
2023-02-11T11:26:18.146Z,26.00
2023-02-11T11:29:08.355Z,26.38
2023-02-11T11:31:37.096Z,21.80
2023-02-11T11:36:40.978Z,21.73
2023-02-11T11:39:31.358Z,24.63
2023-02-11T11:42:00.154Z,20.20
2023-02-11T11:47:15.824Z,19.73
2023-02-11T11:49:57.135Z,20.40
2023-02-11T11:52:43.195Z,22.27
2023-02-11T11:55:14.267Z,18.75
2023-02-11T11:57:41.608Z,18.27
2023-02-11T12:00:20.074Z,22.00
2023-02-11T12:03:01.484Z,18.92
2023-02-11T12:05:35.714Z,19.45
2023-02-11T12:08:23.022Z,19.58
2023-02-11T12:10:53.485Z,19.30
2023-02-11T12:13:30.160Z,19.05
2023-02-11T12:16:10.633Z,21.67
2023-02-11T12:18:53.294Z,25.75
2023-02-11T12:21:23.385Z,19.58
2023-02-11T12:23:50.433Z,24.05
2023-02-11T12:26:17.549Z,26.15
2023-02-11T12:29:01.339Z,26.33
2023-02-11T12:31:31.321Z,23.52
2023-02-11T12:34:17.357Z,25.25
2023-02-11T12:37:03.115Z,22.67
2023-02-11T12:39:49.052Z,19.05
2023-02-11T12:42:53.101Z,19.65
2023-02-11T12:45:38.872Z,28.08
2023-02-11T12:48:06.047Z,24.77
2023-02-11T12:50:52.425Z,22.50
2023-02-11T12:53:31.545Z,23.90
2023-02-11T12:56:01.380Z,20.52
2023-02-11T12:58:44.196Z,21.65
2023-02-11T13:01:30.018Z,21.13
2023-02-11T13:04:00.272Z,25.75
2023-02-11T13:06:34.140Z,21.00
2023-02-11T13:09:02.814Z,13.60
2023-02-11T13:11:38.949Z,9.48
2023-02-11T13:14:13.271Z,10.25
2023-02-11T13:16:45.345Z,11.77
2023-02-11T13:19:31.070Z,10.25
2023-02-11T13:22:04.734Z,9.68
2023-02-11T13:24:44.317Z,12.15
2023-02-11T13:27:15.950Z,12.82
2023-02-11T13:30:05.562Z,12.52
2023-02-11T13:32:51.636Z,12.60
2023-02-11T13:35:32.388Z,11.57
2023-02-11T13:38:06.538Z,11.50
2023-02-11T13:40:38.258Z,10.10
2023-02-11T13:43:06.206Z,9.63
2023-02-11T13:45:49.102Z,15.15
2023-02-11T13:48:37.185Z,11.10
2023-02-11T13:51:06.538Z,11.10
2023-02-11T13:53:52.036Z,13.15
2023-02-11T13:56:35.646Z,11.00
2023-02-11T13:59:25.934Z,12.40
2023-02-11T14:02:20.965Z,11.10
2023-02-11T14:05:25.265Z,13.27
2023-02-11T14:08:23.316Z,13.40
2023-02-11T14:10:51.776Z,7.40
2023-02-11T14:13:29.992Z,12.23
2023-02-11T14:16:07.777Z,14.75
2023-02-11T14:18:51.901Z,11.43
2023-02-11T14:21:29.618Z,10.80
2023-02-11T14:24:04.772Z,12.25
2023-02-11T14:26:50.781Z,10.60
2023-02-11T14:29:28.656Z,11.25
2023-02-11T14:32:04.007Z,10.25
2023-02-11T14:34:44.548Z,10.65
2023-02-11T14:37:14.574Z,11.23
2023-02-11T14:39:53.715Z,8.77
2023-02-11T14:42:22.736Z,11.75
2023-02-11T14:44:51.483Z,9.02
2023-02-11T14:47:24.192Z,10.70
2023-02-11T14:49:51.506Z,10.27
2023-02-11T14:52:29.313Z,12.48
2023-02-11T14:55:25.773Z,10.30
2023-02-11T14:58:11.802Z,11.18
2023-02-11T15:00:47.553Z,15.40
2023-02-11T15:03:27.372Z,9.48
2023-02-11T15:05:58.958Z,9.68
2023-02-11T15:08:26.431Z,11.50
2023-02-11T15:10:55.005Z,11.00
2023-02-11T15:13:27.136Z,11.77
2023-02-11T15:15:56.457Z,18.33
2023-02-11T15:18:24.905Z,14.18
2023-02-11T15:20:52.669Z,14.98
2023-02-11T15:23:23.404Z,14.93
2023-02-11T15:25:56.162Z,14.23
2023-02-11T15:28:25.105Z,14.77
2023-02-11T15:30:59.999Z,14.25
2023-02-11T15:33:29.981Z,12.98
2023-02-11T15:35:57.670Z,13.98
2023-02-11T15:38:24.988Z,15.52
2023-02-11T15:41:01.055Z,14.40
2023-02-11T15:43:47.107Z,14.65
2023-02-11T15:46:18.913Z,12.98
2023-02-11T15:48:48.152Z,12.30
2023-02-11T15:51:22.052Z,12.57
2023-02-11T15:53:59.732Z,17.17
2023-02-11T15:56:30.886Z,14.55
2023-02-11T15:59:00.343Z,17.38
2023-02-11T16:01:35.049Z,21.20
2023-02-11T16:04:02.969Z,12.20
2023-02-11T16:06:40.653Z,12.63
2023-02-11T16:09:13.584Z,16.85
2023-02-11T16:11:47.237Z,11.30
2023-02-11T16:14:23.672Z,15.93
2023-02-11T16:16:52.701Z,19.38
2023-02-11T16:19:21.520Z,18.23
2023-02-11T16:21:50.345Z,18.02
2023-02-11T16:24:36.959Z,15.32
2023-02-11T16:27:05.351Z,18.77
2023-02-11T16:29:35.241Z,19.17
2023-02-11T16:32:09.953Z,13.05
2023-02-11T16:34:37.735Z,15.35
2023-02-11T16:37:06.195Z,14.20
2023-02-11T16:39:33.729Z,14.02
2023-02-11T16:42:01.284Z,12.32
2023-02-11T16:44:28.649Z,15.68
2023-02-11T16:46:56.418Z,15.25
2023-02-11T16:49:25.105Z,18.95
2023-02-11T16:51:56.762Z,14.50
2023-02-11T16:54:25.695Z,13.43
2023-02-11T16:59:21.576Z,15.63
2023-02-11T17:01:49.302Z,17.50
2023-02-11T17:04:16.400Z,17.92
2023-02-11T17:06:43.563Z,13.20
2023-02-11T17:09:16.276Z,17.73
2023-02-11T17:11:43.682Z,13.38
2023-02-11T17:14:10.811Z,14.05
2023-02-11T17:16:38.015Z,12.98
2023-02-11T17:19:05.354Z,15.25
2023-02-11T17:21:32.670Z,14.52
2023-02-11T17:24:00.500Z,14.15
2023-02-11T17:26:27.679Z,14.23
2023-02-11T17:28:54.783Z,15.40
2023-02-11T17:34:53.143Z,14.25
2023-02-11T17:37:20.387Z,12.77
2023-02-11T17:39:49.739Z,13.93
2023-02-11T17:42:19.243Z,17.65
2023-02-11T17:44:46.946Z,15.20
2023-02-11T17:47:14.365Z,14.18
2023-02-11T17:49:42.575Z,18.65
2023-02-11T17:52:09.840Z,14.52
2023-02-11T17:54:38.812Z,13.80
2023-02-11T17:57:05.928Z,16.92
2023-02-11T17:59:35.652Z,16.70
2023-02-11T18:02:03.710Z,11.40
2023-02-11T18:04:31.970Z,16.63
2023-02-11T18:06:59.164Z,18.10
2023-02-11T18:09:26.648Z,15.07
2023-02-11T18:11:53.937Z,19.42
2023-02-11T18:14:22.219Z,17.95
2023-02-11T18:16:50.460Z,18.05
2023-02-11T18:19:17.940Z,18.30
2023-02-11T18:21:45.304Z,20.17
2023-02-11T18:24:12.807Z,27.08
2023-02-11T18:26:39.968Z,20.42
2023-02-11T18:29:07.289Z,26.58
2023-02-11T18:31:37.685Z,23.13
2023-02-11T18:34:07.353Z,22.77
2023-02-11T18:36:34.993Z,31.15
2023-02-11T18:39:02.211Z,21.55
2023-02-11T18:41:29.796Z,21.67
2023-02-11T18:44:00.678Z,20.60
2023-02-11T18:46:27.857Z,15.45
2023-02-11T18:48:56.284Z,16.25
2023-02-11T18:51:23.986Z,18.23
2023-02-11T18:53:51.142Z,21.50
2023-02-11T18:56:20.245Z,17.80
2023-02-11T18:58:48.916Z,16.90
2023-02-11T19:01:17.981Z,19.42
2023-02-11T19:03:45.487Z,17.60
2023-02-11T19:06:20.597Z,16.80
2023-02-11T19:11:17.925Z,19.10
2023-02-11T19:13:47.703Z,19.60
2023-02-11T19:16:16.831Z,22.35
2023-02-11T19:18:44.665Z,21.27
2023-02-11T19:21:12.884Z,20.80
2023-02-11T19:23:40.209Z,20.23
2023-02-11T19:26:07.484Z,19.38
2023-02-11T19:28:37.028Z,16.67
2023-02-11T19:31:08.810Z,17.40
2023-02-11T19:33:36.299Z,18.23
2023-02-11T19:36:07.310Z,20.50
2023-02-11T19:38:34.917Z,21.17
2023-02-11T19:41:02.338Z,19.60
2023-02-11T19:43:29.672Z,23.10
2023-02-11T19:45:58.596Z,22.98
2023-02-11T19:50:52.979Z,21.33
2023-02-11T19:53:20.206Z,22.42
2023-02-11T19:55:47.737Z,20.52
2023-02-11T19:58:15.963Z,21.08
2023-02-11T20:00:43.888Z,24.83
2023-02-11T20:03:11.125Z,23.90
2023-02-11T20:05:43.380Z,22.85
2023-02-11T20:08:10.594Z,26.65
2023-02-11T20:10:37.923Z,23.70
2023-02-11T20:13:05.168Z,29.15
2023-02-11T20:15:32.340Z,32.35
2023-02-11T20:17:59.559Z,26.08
2023-02-11T20:20:26.716Z,23.73
2023-02-11T20:22:53.912Z,23.98
2023-02-11T20:25:21.150Z,24.85
2023-02-11T20:27:48.310Z,23.17
2023-02-11T20:30:15.527Z,23.15
2023-02-11T20:32:42.864Z,20.02
2023-02-11T20:35:10.290Z,20.98
2023-02-11T20:37:38.738Z,22.63
2023-02-11T20:40:06.810Z,27.42
2023-02-11T20:42:34.099Z,22.40
2023-02-11T20:45:01.425Z,24.35
2023-02-11T20:47:28.570Z,22.90
2023-02-11T20:49:56.193Z,25.10
2023-02-11T20:52:23.375Z,25.40
2023-02-11T20:54:50.553Z,23.08
2023-02-11T20:57:17.761Z,22.02
2023-02-11T20:59:44.965Z,25.42
2023-02-11T21:02:13.394Z,28.25
2023-02-11T21:04:40.735Z,31.02
2023-02-11T21:07:07.871Z,24.98
2023-02-11T21:09:35.045Z,21.90
2023-02-11T21:12:02.799Z,24.05
2023-02-11T21:14:30.219Z,29.40
2023-02-11T21:16:57.572Z,24.85
2023-02-11T21:19:24.769Z,29.23
2023-02-11T21:21:52.019Z,31.58
2023-02-11T21:24:19.455Z,23.52
2023-02-11T21:26:46.825Z,22.95
2023-02-11T21:29:14.014Z,27.40
2023-02-11T21:31:42.993Z,27.20
2023-02-11T21:34:10.411Z,27.17
2023-02-11T21:36:37.792Z,24.10
2023-02-11T21:39:05.946Z,25.60
2023-02-11T21:41:33.132Z,21.80
2023-02-11T21:44:00.358Z,26.17
2023-02-11T21:46:28.026Z,29.00
2023-02-11T21:48:55.402Z,20.80
2023-02-11T21:51:26.576Z,25.35
2023-02-11T21:53:57.705Z,25.30
2023-02-11T21:56:27.992Z,23.85
2023-02-11T21:58:56.384Z,24.58
2023-02-11T22:01:25.089Z,20.27
2023-02-11T22:03:52.686Z,21.73
2023-02-11T22:06:21.932Z,20.77
2023-02-11T22:08:49.856Z,21.42
2023-02-11T22:11:17.036Z,25.60
2023-02-11T22:13:44.398Z,24.60
2023-02-11T22:16:15.565Z,21.58
2023-02-11T22:18:46.893Z,22.38
2023-02-11T22:21:18.890Z,20.33
2023-02-11T22:23:46.356Z,20.48
2023-02-11T22:26:14.788Z,21.67
2023-02-11T22:28:42.562Z,27.63
2023-02-11T22:31:14.066Z,24.35
2023-02-11T22:33:41.791Z,29.27
2023-02-11T22:36:12.248Z,28.52
2023-02-11T22:41:12.496Z,23.27
2023-02-11T22:43:39.873Z,22.90
2023-02-11T22:46:07.711Z,21.48
2023-02-11T22:48:35.445Z,22.50
2023-02-11T22:51:09.950Z,21.40
2023-02-11T22:53:37.517Z,25.90
2023-02-11T22:56:09.798Z,22.98
2023-02-11T22:58:37.023Z,21.38
2023-02-11T23:01:05.266Z,23.63
2023-02-11T23:03:33.156Z,21.27
2023-02-11T23:06:00.873Z,21.05
2023-02-11T23:08:29.168Z,20.83
2023-02-11T23:10:56.470Z,21.98
2023-02-11T23:13:23.582Z,21.48
2023-02-11T23:15:50.685Z,20.52
2023-02-11T23:18:18.869Z,22.02
2023-02-11T23:20:46.009Z,20.48
2023-02-11T23:23:13.267Z,21.23
2023-02-11T23:25:44.507Z,18.92
2023-02-11T23:28:12.249Z,20.38
2023-02-11T23:30:39.524Z,20.10
2023-02-11T23:33:06.891Z,22.85
2023-02-11T23:35:34.292Z,21.98
2023-02-11T23:38:01.521Z,20.25
2023-02-11T23:40:28.752Z,24.58
2023-02-11T23:42:55.916Z,22.25
2023-02-11T23:45:23.013Z,24.20
2023-02-11T23:47:50.368Z,23.13
2023-02-11T23:50:17.866Z,22.58
2023-02-11T23:52:45.295Z,27.58
2023-02-11T23:55:12.447Z,22.55
2023-02-11T23:57:39.535Z,24.02
